Terminal Aerodrome Forecast
Issued by NWS Lubbock, TX

Home | Current Version | Previous Version | Text Only | Print | Product List | Glossary On
Versions: 1 2 3 4 5 6 7 8 9 10 11 12 13 14 15 16 17 18 19 20 21 22 23 24 25 26 27 28 29 30
473
FTUS44 KLUB 240520
TAFLBB
TAF
KLBB 240520Z 2406/2506 17019KT P6SM FEW250
     FM240900 18011KT P6SM BKN020
     FM241500 21015KT P6SM SCT030=

USA.gov is the U.S. government's official web portal to all federal, state and local government web resources and services.